Pilot Vessel Akarana — ZMT2938 — position and weather

sailwx.info

Track history (hours):
 
Tides and Currents Weather Stations Pressure Air Temp Water Temp Dewpoint Dewpoint Depression Visibility Wind Speed Wind Dir Waves Ship Positions

Pilot Vessel Akarana

Last reported at 2014-Dec-20 12:31 UTC. Time now 2014-Dec-21 02:37 UTC.
Position S 36°46' E 174°49'.

Length 15 m; draft 1.6 m.

Type: Pilot. MMSI: 512000344.

Date/timePositionNaut miles runAvg speedWind from/ knotsBaromVisibWave heightAir tempDewpointWater temp
2014-Dec-20 12:31S 36°46' E 174°49'0 0.1
2014-Dec-20 11:32S 36°46' E 174°49'5 4.9
2014-Dec-20 10:33S 36°51' E 174°47'8 7.7
2014-Dec-20 09:33S 36°44' E 174°51'6 6.1
2014-Dec-20 08:33S 36°50' E 174°49'2 2.0
2014-Dec-20 07:34S 36°51' E 174°47'0 0.0
2014-Dec-20 06:33S 36°51' E 174°47'0 0.0
2014-Dec-20 05:30S 36°51' E 174°47'0 0.2
2014-Dec-20 04:34S 36°50' E 174°47'0 0.0
2014-Dec-19 23:16S 36°51' E 174°47'0 0.0
2014-Dec-19 22:33S 36°51' E 174°47'0 0.0
2014-Dec-19 20:32S 36°51' E 174°47'0 0.0
2014-Dec-19 19:32S 36°51' E 174°47'0 0.0
2014-Dec-19 18:33S 36°51' E 174°47'0 0.0
2014-Dec-19 17:32S 36°51' E 174°47'0 0.0
2014-Dec-19 16:33S 36°51' E 174°47'0 0.0
2014-Dec-19 15:28S 36°51' E 174°47'0 0.0
2014-Dec-19 14:32S 36°51' E 174°47'0 0.0
2014-Dec-19 13:33S 36°51' E 174°47'0 0.0
2014-Dec-19 12:33S 36°51' E 174°47'0 0.0
2014-Dec-19 11:29S 36°51' E 174°47'2 2.1
2014-Dec-19 10:33S 36°50' E 174°49'2 2.0
2014-Dec-19 09:33S 36°51' E 174°47'0 0.5
2014-Dec-19 08:32S 36°50' E 174°47'7 6.8
2014-Dec-19 07:33S 36°45' E 174°50'7 6.7
2014-Dec-19 06:33S 36°51' E 174°47'0 0.0
2014-Dec-19 05:33S 36°51' E 174°47'0 0.0
2014-Dec-19 04:31S 36°51' E 174°47'0 0.0
2014-Dec-19 03:31S 36°51' E 174°47'3 2.8
2014-Dec-19 02:33S 36°49' E 174°49'3 2.7
2014-Dec-19 01:33S 36°51' E 174°47'0 0.0
2014-Dec-19 00:30S 36°51' E 174°47'1 1.6
2014-Dec-18 23:34S 36°50' E 174°49'1 1.5
2014-Dec-18 22:33S 36°51' E 174°47'0 0.0
2014-Dec-18 21:33S 36°51' E 174°47'0 0.0
2014-Dec-18 20:33S 36°51' E 174°47'0 0.0
2014-Dec-18 19:33S 36°51' E 174°47'1 0.6
2014-Dec-18 17:32S 36°50' E 174°48'7 7.0
2014-Dec-18 16:33S 36°44' E 174°51'8 1.5
2014-Dec-18 11:23S 36°51' E 174°47'0 0.4
2014-Dec-18 10:30S 36°50' E 174°47'4 4.0
2014-Dec-18 09:34S 36°47' E 174°49'0 0.3
2014-Dec-18 08:34S 36°47' E 174°49'4 4.2
2014-Dec-18 07:31S 36°51' E 174°47'0 0.0
2014-Dec-18 06:33S 36°51' E 174°47'4 3.9
2014-Dec-18 05:34S 36°47' E 174°49'4 3.9
2014-Dec-18 04:33S 36°51' E 174°47'0 0.0
2014-Dec-18 03:33S 36°51' E 174°47'0 0.0
2014-Dec-18 02:33S 36°51' E 174°47'0 0.0
2014-Dec-18 01:33S 36°51' E 174°47'0 0.0
2014-Dec-18 00:33S 36°51' E 174°47'0 0.0
2014-Dec-17 23:33S 36°51' E 174°47'0 0.0
2014-Dec-17 22:33S 36°51' E 174°47'0 0.0
2014-Dec-17 21:33S 36°51' E 174°47'5 4.7
2014-Dec-17 20:33S 36°47' E 174°49'5 4.6
2014-Dec-17 19:33S 36°51' E 174°47'0 0.0
2014-Dec-17 02:33S 36°51' E 174°47'2 2.4
2014-Dec-17 01:34S 36°49' E 174°49'2 2.4
2014-Dec-17 00:32S 36°51' E 174°47'3 3.1
2014-Dec-16 23:34S 36°48' E 174°49'3 2.7
2014-Dec-16 22:30S 36°50' E 174°47'0 0.2
2014-Dec-16 21:27S 36°51' E 174°47'4 1.3
2014-Dec-16 18:34S 36°47' E 174°49'2 1.6
2014-Dec-16 17:33S 36°46' E 174°49'2 1.7
2014-Dec-16 16:33S 36°47' E 174°49'4 3.3
2014-Dec-16 15:28S 36°51' E 174°47'0 0.0
2014-Dec-16 11:12S 36°51' E 174°47'2 3.5
2014-Dec-16 10:33S 36°49' E 174°49'3 0.2
2014-Dec-15 12:33S 36°46' E 174°49'3 2.9
2014-Dec-15 11:33S 36°49' E 174°49'2 0.2
2014-Dec-14 22:29S 36°51' E 174°47'0 0.0
2014-Dec-14 21:14S 36°51' E 174°47'2 3.4
2014-Dec-14 20:33S 36°49' E 174°49'2 0.8
2014-Dec-14 17:30S 36°51' E 174°47'1 1.4
2014-Dec-14 16:29S 36°50' E 174°49'1 1.2
2014-Dec-14 15:18S 36°51' E 174°47'0 0.0
2014-Dec-14 14:33S 36°51' E 174°47'0 0.0
2014-Dec-14 13:32S 36°51' E 174°47'0 0.0
2014-Dec-14 12:33S 36°51' E 174°47'4 3.8
2014-Dec-14 11:34S 36°47' E 174°48'3 3.0
2014-Dec-14 10:34S 36°44' E 174°50'7 6.7
2014-Dec-14 09:33S 36°51' E 174°47'0 0.0
2014-Dec-14 08:28S 36°51' E 174°47'5 5.1
2014-Dec-14 07:33S 36°46' E 174°49'5 4.7
2014-Dec-14 06:33S 36°51' E 174°47'0 0.0
2014-Dec-14 05:33S 36°51' E 174°47'0 0.0
2014-Dec-14 04:31S 36°51' E 174°47'8 8.5
2014-Dec-14 03:33S 36°43' E 174°49'8 8.1
2014-Dec-14 02:33S 36°51' E 174°47'0 0.0
2014-Dec-14 01:29S 36°51' E 174°47'1 1.2
2014-Dec-14 00:32S 36°51' E 174°48'1 1.2
2014-Dec-13 23:33S 36°51' E 174°47'0 0.0
2014-Dec-13 22:33S 36°51' E 174°47'0 0.0
2014-Dec-13 21:33S 36°51' E 174°47'0 0.0
2014-Dec-13 20:32S 36°51' E 174°47'6 1.5
2014-Dec-13 16:09S 36°45' E 174°50'6 8.8
2014-Dec-13 15:25S 36°51' E 174°47'4 4.8
2014-Dec-13 14:34S 36°47' E 174°49'4 3.5
2014-Dec-13 13:30S 36°50' E 174°47'0 0.4
2014-Dec-13 12:33S 36°51' E 174°47'0 0.0
2014-Dec-13 11:33S 36°51' E 174°47'0 0.0
2014-Dec-13 02:29S 36°51' E 174°47'0 0.0
2014-Dec-13 01:33S 36°51' E 174°47'0 0.0
2014-Dec-13 00:25S 36°51' E 174°47'0 0.0
2014-Dec-12 23:24S 36°51' E 174°47'2 2.9
2014-Dec-12 22:33S 36°49' E 174°49'2 2.5
2014-Dec-12 21:33S 36°51' E 174°47'0 0.0
2014-Dec-12 20:33S 36°51' E 174°47'1 1.2
2014-Dec-12 19:34S 36°50' E 174°48'4 4.1
2014-Dec-12 18:34S 36°46' E 174°49'1 0.3
2014-Dec-12 16:26S 36°45' E 174°49'0 0.0
2014-Dec-12 07:33S 36°46' E 174°49'6 5.5
2014-Dec-12 06:34S 36°51' E 174°46'1 0.7
2014-Dec-12 05:33S 36°51' E 174°47'0 0.0
2014-Dec-12 04:33S 36°51' E 174°47'0 0.0
2014-Dec-12 03:33S 36°51' E 174°47'0 0.0
2014-Dec-12 02:33S 36°51' E 174°47'5 4.6
2014-Dec-12 01:33S 36°46' E 174°49'3 3.2
2014-Dec-12 00:33S 36°44' E 174°51'8 7.6
2014-Dec-11 23:33S 36°51' E 174°47'0 0.0
2014-Dec-11 22:33S 36°51' E 174°47'0 0.0
2014-Dec-11 20:31S 36°51' E 174°47'1 0.6
2014-Dec-11 19:33S 36°50' E 174°47'1 0.5
2014-Dec-11 17:18S 36°51' E 174°48'1 1.6
2014-Dec-11 16:34S 36°51' E 174°47'3 0.5
2014-Dec-11 10:33S 36°48' E 174°49'3 3.0
2014-Dec-11 09:33S 36°51' E 174°47'0 0.0
2014-Dec-11 08:33S 36°51' E 174°47'0 0.0
2014-Dec-11 07:09S 36°51' E 174°47'6 9.5
2014-Dec-11 06:33S 36°45' E 174°50'4 3.7
2014-Dec-11 05:34S 36°49' E 174°49'2 1.8
2014-Dec-11 04:33S 36°48' E 174°48'3 2.8
2014-Dec-11 03:28S 36°51' E 174°47'0 0.1
2014-Dec-11 02:33S 36°51' E 174°47'3 2.8
2014-Dec-11 01:33S 36°48' E 174°49'3 2.4
2014-Dec-11 00:25S 36°51' E 174°48'1 1.4
2014-Dec-10 23:33S 36°51' E 174°47'7 7.4
2014-Dec-10 22:34S 36°44' E 174°51'7 7.4
2014-Dec-10 21:33S 36°51' E 174°47'4 4.3
2014-Dec-10 20:33S 36°47' E 174°49'1 0.3
2014-Dec-10 16:15S 36°46' E 174°50'  
Track history (hours):
 
Tides and Currents Weather Stations Pressure Air Temp Water Temp Dewpoint Dewpoint Depression Visibility Wind Speed Wind Dir Waves Ship Positions

Pilot Vessel Akarana

Last reported at 2014-Dec-20 12:31 UTC. Time now 2014-Dec-21 02:37 UTC.
Position S 36°46' E 174°49'.

Length 15 m; draft 1.6 m.

Type: Pilot. MMSI: 512000344.

Date/timePositionNaut miles runAvg speedWind from/ knotsBaromVisibWave heightAir tempDewpointWater temp
2014-Dec-20 12:31S 36°46' E 174°49'0 0.1
2014-Dec-20 11:32S 36°46' E 174°49'5 4.9
2014-Dec-20 10:33S 36°51' E 174°47'8 7.7
2014-Dec-20 09:33S 36°44' E 174°51'6 6.1
2014-Dec-20 08:33S 36°50' E 174°49'2 2.0
2014-Dec-20 07:34S 36°51' E 174°47'0 0.0
2014-Dec-20 06:33S 36°51' E 174°47'0 0.0
2014-Dec-20 05:30S 36°51' E 174°47'0 0.2
2014-Dec-20 04:34S 36°50' E 174°47'0 0.0
2014-Dec-19 23:16S 36°51' E 174°47'0 0.0
2014-Dec-19 22:33S 36°51' E 174°47'0 0.0
2014-Dec-19 20:32S 36°51' E 174°47'0 0.0
2014-Dec-19 19:32S 36°51' E 174°47'0 0.0
2014-Dec-19 18:33S 36°51' E 174°47'0 0.0
2014-Dec-19 17:32S 36°51' E 174°47'0 0.0
2014-Dec-19 16:33S 36°51' E 174°47'0 0.0
2014-Dec-19 15:28S 36°51' E 174°47'0 0.0
2014-Dec-19 14:32S 36°51' E 174°47'0 0.0
2014-Dec-19 13:33S 36°51' E 174°47'0 0.0
2014-Dec-19 12:33S 36°51' E 174°47'0 0.0
2014-Dec-19 11:29S 36°51' E 174°47'2 2.1
2014-Dec-19 10:33S 36°50' E 174°49'2 2.0
2014-Dec-19 09:33S 36°51' E 174°47'0 0.5
2014-Dec-19 08:32S 36°50' E 174°47'7 6.8
2014-Dec-19 07:33S 36°45' E 174°50'7 6.7
2014-Dec-19 06:33S 36°51' E 174°47'0 0.0
2014-Dec-19 05:33S 36°51' E 174°47'0 0.0
2014-Dec-19 04:31S 36°51' E 174°47'0 0.0
2014-Dec-19 03:31S 36°51' E 174°47'3 2.8
2014-Dec-19 02:33S 36°49' E 174°49'3 2.7
2014-Dec-19 01:33S 36°51' E 174°47'0 0.0
2014-Dec-19 00:30S 36°51' E 174°47'1 1.6
2014-Dec-18 23:34S 36°50' E 174°49'1 1.5
2014-Dec-18 22:33S 36°51' E 174°47'0 0.0
2014-Dec-18 21:33S 36°51' E 174°47'0 0.0
2014-Dec-18 20:33S 36°51' E 174°47'0 0.0
2014-Dec-18 19:33S 36°51' E 174°47'1 0.6
2014-Dec-18 17:32S 36°50' E 174°48'7 7.0
2014-Dec-18 16:33S 36°44' E 174°51'8 1.5
2014-Dec-18 11:23S 36°51' E 174°47'0 0.4
2014-Dec-18 10:30S 36°50' E 174°47'4 4.0
2014-Dec-18 09:34S 36°47' E 174°49'0 0.3
2014-Dec-18 08:34S 36°47' E 174°49'4 4.2
2014-Dec-18 07:31S 36°51' E 174°47'0 0.0
2014-Dec-18 06:33S 36°51' E 174°47'4 3.9
2014-Dec-18 05:34S 36°47' E 174°49'4 3.9
2014-Dec-18 04:33S 36°51' E 174°47'0 0.0
2014-Dec-18 03:33S 36°51' E 174°47'0 0.0
2014-Dec-18 02:33S 36°51' E 174°47'0 0.0
2014-Dec-18 01:33S 36°51' E 174°47'0 0.0
2014-Dec-18 00:33S 36°51' E 174°47'0 0.0
2014-Dec-17 23:33S 36°51' E 174°47'0 0.0
2014-Dec-17 22:33S 36°51' E 174°47'0 0.0
2014-Dec-17 21:33S 36°51' E 174°47'5 4.7
2014-Dec-17 20:33S 36°47' E 174°49'5 4.6
2014-Dec-17 19:33S 36°51' E 174°47'0 0.0
2014-Dec-17 02:33S 36°51' E 174°47'2 2.4
2014-Dec-17 01:34S 36°49' E 174°49'2 2.4
2014-Dec-17 00:32S 36°51' E 174°47'3 3.1
2014-Dec-16 23:34S 36°48' E 174°49'3 2.7
2014-Dec-16 22:30S 36°50' E 174°47'0 0.2
2014-Dec-16 21:27S 36°51' E 174°47'4 1.3
2014-Dec-16 18:34S 36°47' E 174°49'2 1.6
2014-Dec-16 17:33S 36°46' E 174°49'2 1.7
2014-Dec-16 16:33S 36°47' E 174°49'4 3.3
2014-Dec-16 15:28S 36°51' E 174°47'0 0.0
2014-Dec-16 11:12S 36°51' E 174°47'2 3.5
2014-Dec-16 10:33S 36°49' E 174°49'3 0.2
2014-Dec-15 12:33S 36°46' E 174°49'3 2.9
2014-Dec-15 11:33S 36°49' E 174°49'2 0.2
2014-Dec-14 22:29S 36°51' E 174°47'0 0.0
2014-Dec-14 21:14S 36°51' E 174°47'2 3.4
2014-Dec-14 20:33S 36°49' E 174°49'2 0.8
2014-Dec-14 17:30S 36°51' E 174°47'1 1.4
2014-Dec-14 16:29S 36°50' E 174°49'1 1.2
2014-Dec-14 15:18S 36°51' E 174°47'0 0.0
2014-Dec-14 14:33S 36°51' E 174°47'0 0.0
2014-Dec-14 13:32S 36°51' E 174°47'0 0.0
2014-Dec-14 12:33S 36°51' E 174°47'4 3.8
2014-Dec-14 11:34S 36°47' E 174°48'3 3.0
2014-Dec-14 10:34S 36°44' E 174°50'7 6.7
2014-Dec-14 09:33S 36°51' E 174°47'0 0.0
2014-Dec-14 08:28S 36°51' E 174°47'5 5.1
2014-Dec-14 07:33S 36°46' E 174°49'5 4.7
2014-Dec-14 06:33S 36°51' E 174°47'0 0.0
2014-Dec-14 05:33S 36°51' E 174°47'0 0.0
2014-Dec-14 04:31S 36°51' E 174°47'8 8.5
2014-Dec-14 03:33S 36°43' E 174°49'8 8.1
2014-Dec-14 02:33S 36°51' E 174°47'0 0.0
2014-Dec-14 01:29S 36°51' E 174°47'1 1.2
2014-Dec-14 00:32S 36°51' E 174°48'1 1.2
2014-Dec-13 23:33S 36°51' E 174°47'0 0.0
2014-Dec-13 22:33S 36°51' E 174°47'0 0.0
2014-Dec-13 21:33S 36°51' E 174°47'0 0.0
2014-Dec-13 20:32S 36°51' E 174°47'6 1.5
2014-Dec-13 16:09S 36°45' E 174°50'6 8.8
2014-Dec-13 15:25S 36°51' E 174°47'4 4.8
2014-Dec-13 14:34S 36°47' E 174°49'4 3.5
2014-Dec-13 13:30S 36°50' E 174°47'0 0.4
2014-Dec-13 12:33S 36°51' E 174°47'0 0.0
2014-Dec-13 11:33S 36°51' E 174°47'0 0.0
2014-Dec-13 02:29S 36°51' E 174°47'0 0.0
2014-Dec-13 01:33S 36°51' E 174°47'0 0.0
2014-Dec-13 00:25S 36°51' E 174°47'0 0.0
2014-Dec-12 23:24S 36°51' E 174°47'2 2.9
2014-Dec-12 22:33S 36°49' E 174°49'2 2.5
2014-Dec-12 21:33S 36°51' E 174°47'0 0.0
2014-Dec-12 20:33S 36°51' E 174°47'1 1.2
2014-Dec-12 19:34S 36°50' E 174°48'4 4.1
2014-Dec-12 18:34S 36°46' E 174°49'1 0.3
2014-Dec-12 16:26S 36°45' E 174°49'0 0.0
2014-Dec-12 07:33S 36°46' E 174°49'6 5.5
2014-Dec-12 06:34S 36°51' E 174°46'1 0.7
2014-Dec-12 05:33S 36°51' E 174°47'0 0.0
2014-Dec-12 04:33S 36°51' E 174°47'0 0.0
2014-Dec-12 03:33S 36°51' E 174°47'0 0.0
2014-Dec-12 02:33S 36°51' E 174°47'5 4.6
2014-Dec-12 01:33S 36°46' E 174°49'3 3.2
2014-Dec-12 00:33S 36°44' E 174°51'8 7.6
2014-Dec-11 23:33S 36°51' E 174°47'0 0.0
2014-Dec-11 22:33S 36°51' E 174°47'0 0.0
2014-Dec-11 20:31S 36°51' E 174°47'1 0.6
2014-Dec-11 19:33S 36°50' E 174°47'1 0.5
2014-Dec-11 17:18S 36°51' E 174°48'1 1.6
2014-Dec-11 16:34S 36°51' E 174°47'3 0.5
2014-Dec-11 10:33S 36°48' E 174°49'3 3.0
2014-Dec-11 09:33S 36°51' E 174°47'0 0.0
2014-Dec-11 08:33S 36°51' E 174°47'0 0.0
2014-Dec-11 07:09S 36°51' E 174°47'6 9.5
2014-Dec-11 06:33S 36°45' E 174°50'4 3.7
2014-Dec-11 05:34S 36°49' E 174°49'2 1.8
2014-Dec-11 04:33S 36°48' E 174°48'3 2.8
2014-Dec-11 03:28S 36°51' E 174°47'0 0.1
2014-Dec-11 02:33S 36°51' E 174°47'3 2.8
2014-Dec-11 01:33S 36°48' E 174°49'3 2.4
2014-Dec-11 00:25S 36°51' E 174°48'1 1.4
2014-Dec-10 23:33S 36°51' E 174°47'7 7.4
2014-Dec-10 22:34S 36°44' E 174°51'7 7.4
2014-Dec-10 21:33S 36°51' E 174°47'4 4.3
2014-Dec-10 20:33S 36°47' E 174°49'1 0.3
2014-Dec-10 16:15S 36°46' E 174°50'  

Dump ship's entire track history